Terminal Aerodrome Forecast
Issued by NWS Austin/San Antonio, TX

Home | Current Version | Previous Version | Text Only | Print | Product List | Glossary On
Versions: 1 2 3 4 5 6 7 8 9 10 11 12 13 14 15
000
FTUS44 KEWX 020541
TAFDRT
TAF
KDRT 020541Z 0206/0306 11011KT P6SM SKC
     FM021200 12007KT P6SM BKN010
     FM021600 14010KT P6SM SKC
     FM030100 11008KT P6SM FEW250=

USA.gov is the U.S. government's official web portal to all federal, state and local government web resources and services.